Standish, Michigan
Current Conditions -  °F | °C
As of 5:32 AM on Friday 24 Oct 2014 (Local Time) from KIKW Reporting Station
Broken Clouds Broken Clouds  
Wind Chill:   Ceiling: 8500
Heat Index:   Visibility: 10mi
Dew Point:   Wind: 0mph
Humidity: 97%   Direction: NA
Pressure: 30.05"   Gusts: NA
Location:  43.98°N, 83.96°W
Report Text: KIKW 240932Z AUTO 00000KT 10SM SCT046 BKN085 04/03 A3005 RMK AO2 T00370033
Loading
Personal Weather Stations






























Interactive Weather Map
Tropical Storm Tracking
New forecast layout! Learn more

10-Day Weather Forecast

Advertisements
Track Severe Weather on mobile